Time;durP1;ratioP1;P1;durP2;ratioP2;P2;SDS_P1;SDS_P2;PMS_P1;PMS_P2;Temp;Humidity;BMP_temperature;BMP_pressure;BME280_temperature;BME280_humidity;BME280_pressure;Samples;Min_cycle;Max_cycle;Signal;HPM_P1;HPM_P2
2023/03/30 00:01:13;;;;;;;9.35;8.32;;;9.20;99.90;;;;;;4944628;28;20391;-77
2023/03/30 00:03:44;;;;;;;11.25;8.15;;;9.20;99.90;;;;;;4960699;28;20133;-79
2023/03/30 00:06:14;;;;;;;8.55;7.78;;;9.30;99.90;;;;;;4945072;28;20494;-80
2023/03/30 00:08:40;;;;;;;8.88;8.07;;;9.30;99.90;;;;;;4944780;28;20038;-79
2023/03/30 00:11:14;;;;;;;11.38;8.93;;;9.30;99.90;;;;;;4996314;28;20068;-82
2023/03/30 00:13:42;;;;;;;10.48;8.50;;;9.30;99.90;;;;;;4964047;28;20068;-80
2023/03/30 00:16:11;;;;;;;9.70;8.85;;;9.20;99.90;;;;;;4952797;28;20443;-79
2023/03/30 00:18:39;;;;;;;9.65;8.70;;;9.20;99.90;;;;;;4961417;28;20426;-78
2023/03/30 00:21:21;;;;;;;9.00;8.20;;;9.10;99.90;;;;;;4948073;28;20083;-93
2023/03/30 00:23:53;;;;;;;10.93;8.80;;;9.10;99.90;;;;;;5113131;23;20106;-94
2023/03/30 00:26:22;;;;;;;9.38;8.00;;;9.10;99.90;;;;;;4944967;28;20023;-92
2023/03/30 00:28:52;;;;;;;8.98;8.27;;;9.10;99.90;;;;;;4951467;28;20456;-92
2023/03/30 01:07:32;;;;;;;10.00;6.88;;;8.30;99.90;;;;;;4957503;29;20489;-93
2023/03/30 01:10:51;;;;;;;13.82;7.72;;;8.30;99.90;;;;;;4942217;29;20035;-92
2023/03/30 01:13:32;;;;;;;9.15;6.85;;;8.30;99.90;;;;;;4833142;29;20049;-92
2023/03/30 01:16:00;;;;;;;8.52;6.80;;;8.20;99.90;;;;;;4830446;29;20049;-92
2023/03/30 01:18:44;;;;;;;9.13;6.68;;;8.20;99.90;;;;;;4845557;29;20054;-93
2023/03/30 01:21:35;;;;;;;8.88;6.28;;;8.20;99.90;;;;;;4830420;29;20215;-92
2023/03/30 01:32:06;;;;;;;8.20;5.80;;;8.30;99.90;;;;;;4742519;30;20131;-92
2023/03/30 01:35:44;;;;;;;;;;;;;;;;;;;;;
2023/03/30 01:39:07;;;;;;;;;;;;;;;;;;;;;
2023/03/30 01:42:14;;;;;;;10.55;6.07;;;8.40;99.90;;;;;;4740102;30;20047;-92
2023/03/30 01:45:01;;;;;;;6.53;5.97;;;8.20;99.90;;;;;;4740137;30;20076;-94
2023/03/30 01:48:02;;;;;;;7.90;5.78;;;8.10;99.90;;;;;;4741397;30;20112;-92
2023/03/30 01:54:57;;;;;;;15.95;6.38;;;8.00;99.90;;;;;;4782311;29;20101;-92
2023/03/30 01:58:04;;;;;;;8.85;5.70;;;7.90;99.90;;;;;;4801198;29;20039;-92
2023/03/30 02:04:58;;;;;;;8.27;5.40;;;7.90;99.90;;;;;;4834138;29;20060;-91
2023/03/30 02:08:23;;;;;;;;;;;;;;;;;;;;;
2023/03/30 02:11:26;;;;;;;6.45;5.70;;;8.10;99.90;;;;;;4832988;29;20070;-92
2023/03/30 02:14:31;;;;;;;7.57;5.15;;;8.00;99.90;;;;;;4761512;30;20044;-92
2023/03/30 02:17:52;;;;;;;;;;;;;;;;;;;;;
2023/03/30 02:20:42;;;;;;;8.35;5.63;;;8.10;99.90;;;;;;4747714;30;20055;-92
2023/03/30 02:23:37;;;;;;;8.23;5.28;;;8.00;99.90;;;;;;4744824;30;20040;-93
2023/03/30 02:30:20;;;;;;;9.15;5.28;;;7.80;99.90;;;;;;4714884;30;20048;-93
2023/03/30 02:37:30;;;;;;;8.90;6.00;;;7.70;99.90;;;;;;4672500;30;20038;-93
2023/03/30 02:45:00;;;;;;;9.68;5.57;;;7.70;99.90;;;;;;4706050;30;20036;-91
2023/03/30 02:48:09;;;;;;;11.65;5.70;;;7.70;99.90;;;;;;4698403;30;20050;-92
2023/03/30 02:51:45;;;;;;;10.73;5.57;;;7.70;99.90;;;;;;4685646;30;20401;-93
2023/03/30 02:54:54;;;;;;;6.95;5.50;;;7.70;99.90;;;;;;4685686;30;20046;-92
2023/03/30 02:58:14;;;;;;;7.15;5.70;;;7.60;99.90;;;;;;4685055;30;20065;-92
2023/03/30 03:04:17;;;;;;;8.27;5.55;;;7.60;99.90;;;;;;4667840;30;20493;-93
2023/03/30 03:07:14;;;;;;;5.97;5.38;;;7.50;99.90;;;;;;4670786;30;20042;-92
2023/03/30 03:09:49;;;;;;;8.75;5.57;;;7.40;99.90;;;;;;4702810;30;20050;-91
2023/03/30 03:12:28;;;;;;;8.73;5.93;;;7.40;99.90;;;;;;4707848;30;20092;-92
2023/03/30 03:15:44;;;;;;;7.10;5.70;;;7.30;99.90;;;;;;4719330;30;20037;-92
2023/03/30 03:18:41;;;;;;;9.73;5.90;;;7.20;99.90;;;;;;4710139;30;20093;-91
2023/03/30 03:44:08;;;;;;;;;;;;;;;;;;;;;
2023/03/30 03:47:21;;;;;;;7.28;6.00;;;6.80;99.90;;;;;;4943445;29;20127;-93
2023/03/30 03:49:51;;;;;;;6.85;5.80;;;6.70;99.90;;;;;;4906815;29;20027;-93
2023/03/30 03:52:26;;;;;;;6.82;6.13;;;6.70;99.90;;;;;;4906049;29;20032;-93
2023/03/30 03:54:53;;;;;;;8.43;6.38;;;6.70;99.90;;;;;;4922189;29;20063;-93
2023/03/30 03:58:11;;;;;;;11.60;6.72;;;6.60;99.90;;;;;;4908444;29;20078;-93
2023/03/30 04:52:34;;;;;;;12.02;8.77;;;6.20;99.90;;;;;;4917708;29;20206;-93
2023/03/30 04:55:26;;;;;;;9.77;8.43;;;6.20;99.90;;;;;;4879065;29;20068;-93
2023/03/30 05:37:22;;;;;;;17.27;15.87;;;12.80;99.90;;;;;;5482208;23;22011;31
2023/03/30 06:55:01;;;;;;;21.75;20.23;;;19.90;99.90;;;;;;5019737;28;20095;-94
2023/03/30 06:57:39;;;;;;;21.73;20.45;;;19.80;99.90;;;;;;5068538;23;20129;-93
2023/03/30 09:08:51;;;;;;;23.25;21.75;;;19.30;99.90;;;;;;4978958;28;20034;-92
2023/03/30 09:11:44;;;;;;;23.35;21.65;;;19.70;99.90;;;;;;4979077;28;20042;-93
2023/03/30 10:44:57;;;;;;;22.50;21.10;;;20.40;99.90;;;;;;2782456;23;20329;-91
2023/03/30 10:51:16;;;;;;;24.60;22.75;;;20.30;99.90;;;;;;4942419;29;20042;-94
2023/03/30 10:54:16;;;;;;;22.90;21.55;;;20.40;99.90;;;;;;4923963;29;20043;-91
2023/03/30 10:57:18;;;;;;;23.02;21.50;;;20.60;99.90;;;;;;4926545;29;20051;-93
2023/03/30 11:00:09;;;;;;;;;;;20.50;99.90;;;;;;4926758;29;20063;-92
2023/03/30 11:03:02;;;;;;;23.50;21.98;;;20.80;99.90;;;;;;4925510;29;19918;-91
2023/03/30 11:05:34;;;;;;;23.00;21.58;;;20.90;99.90;;;;;;4921233;29;20035;-93
2023/03/30 11:08:11;;;;;;;23.58;22.08;;;20.80;99.90;;;;;;4925613;29;20539;-91
2023/03/30 11:10:47;;;;;;;23.33;22.02;;;20.90;99.90;;;;;;4927029;29;20031;-91
2023/03/30 11:13:20;;;;;;;23.83;22.23;;;20.30;99.90;;;;;;4926420;28;20117;-94
2023/03/30 11:16:10;;;;;;;23.65;22.00;;;20.10;99.90;;;;;;4926031;29;20038;-93
2023/03/30 11:18:41;;;;;;;23.95;22.10;;;20.30;99.90;;;;;;4925867;29;20492;-95
2023/03/30 11:21:19;;;;;;;23.75;22.15;;;20.30;99.90;;;;;;4926025;29;20376;-94
2023/03/30 11:23:54;;;;;;;23.35;21.92;;;20.40;99.90;;;;;;4925705;29;20098;-93
2023/03/30 11:26:37;;;;;;;24.35;22.48;;;20.50;99.90;;;;;;4925606;29;20027;-95
2023/03/30 11:29:26;;;;;;;23.40;22.00;;;20.30;99.90;;;;;;4926067;29;20041;-93
2023/03/30 11:31:58;;;;;;;23.88;22.35;;;20.50;99.90;;;;;;4926139;29;20032;-95
2023/03/30 11:34:52;;;;;;;29.02;26.60;;;20.40;99.90;;;;;;4925987;28;20032;-93
2023/03/30 11:37:44;;;;;;;23.60;22.20;;;20.00;99.90;;;;;;4902341;29;20040;-93
2023/03/30 11:40:17;;;;;;;23.40;22.00;;;20.20;99.90;;;;;;4918975;29;20161;-94
2023/03/30 11:42:47;;;;;;;22.92;21.52;;;20.00;99.90;;;;;;4919845;29;20048;-95
2023/03/30 11:45:35;;;;;;;23.10;21.70;;;19.70;99.90;;;;;;4902841;29;20033;-95
2023/03/30 11:48:40;;;;;;;23.30;21.80;;;19.90;99.90;;;;;;4917999;29;20142;-94
2023/03/30 11:51:27;;;;;;;23.58;22.05;;;19.90;99.90;;;;;;4917775;29;20040;-96
2023/03/30 11:54:26;;;;;;;23.30;21.85;;;19.70;99.90;;;;;;4891321;29;20029;-95
2023/03/30 11:57:22;;;;;;;23.33;21.65;;;19.70;99.90;;;;;;4868219;29;20053;-94
2023/03/30 12:00:26;;;;;;;23.30;21.80;;;19.80;99.90;;;;;;4920950;29;20060;-94
2023/03/30 12:29:05;;;;;;;23.42;21.98;;;19.50;99.90;;;;;;1522844;23;20510;-92
2023/03/30 12:32:22;;;;;;;23.48;22.08;;;19.80;99.90;;;;;;4972224;23;20046;-94
2023/03/30 12:34:49;;;;;;;24.17;22.58;;;19.80;99.90;;;;;;4962485;28;20045;-86
2023/03/30 12:37:27;;;;;;;24.02;22.70;;;19.90;99.90;;;;;;4944536;28;20436;-88
2023/03/30 12:40:11;;;;;;;23.60;22.20;;;20.00;99.90;;;;;;4960750;28;20035;-86
2023/03/30 12:42:45;;;;;;;24.25;22.63;;;20.00;99.90;;;;;;4944642;28;20163;-86
2023/03/30 12:45:30;;;;;;;24.80;22.90;;;19.80;99.90;;;;;;4934255;29;20039;-86
2023/03/30 12:48:25;;;;;;;23.10;21.80;;;19.80;99.90;;;;;;4941014;29;20031;-84
2023/03/30 12:51:17;;;;;;;23.90;22.30;;;19.80;99.90;;;;;;4940594;29;20027;-89
2023/03/30 13:50:16;;;;;;;22.50;20.80;;;19.90;99.90;;;;;;5842552;23;20058;-92
2023/03/30 13:52:54;;;;;;;23.00;21.20;;;20.00;99.90;;;;;;4885507;29;20460;-93
2023/03/30 13:55:45;;;;;;;23.40;21.67;;;20.10;99.90;;;;;;4886394;29;20031;-93
2023/03/30 13:58:48;;;;;;;27.60;25.10;;;19.90;99.90;;;;;;4886507;29;20041;-93
2023/03/30 14:01:21;;;;;;;22.70;21.25;;;19.90;99.90;;;;;;4867076;29;20041;-90
2023/03/30 14:03:59;;;;;;;22.55;21.02;;;19.80;99.90;;;;;;4879044;29;20049;-92
2023/03/30 14:07:04;;;;;;;22.70;21.40;;;19.80;99.90;;;;;;4849443;29;20057;-94
2023/03/30 14:09:43;;;;;;;22.70;21.30;;;19.70;99.90;;;;;;4864535;29;20044;-93
2023/03/30 14:12:21;;;;;;;23.70;21.95;;;19.70;99.90;;;;;;4879221;29;20033;-92
2023/03/30 14:14:52;;;;;;;23.25;21.65;;;19.60;99.90;;;;;;4878520;29;20033;-93
2023/03/30 14:17:29;;;;;;;23.35;21.90;;;19.60;99.90;;;;;;4862855;29;20045;-91
2023/03/30 14:20:26;;;;;;;22.38;21.17;;;19.40;99.90;;;;;;4879036;29;20141;-93
2023/03/30 16:42:26;;;;;;;21.42;20.13;;;15.60;99.90;;;;;;5486196;22;20045;-93
2023/03/30 16:44:53;;;;;;;21.88;20.27;;;15.50;99.90;;;;;;4979242;28;20030;-93
2023/03/30 16:47:40;;;;;;;22.27;20.70;;;15.40;99.90;;;;;;4995348;28;20081;-93
2023/03/30 16:50:30;;;;;;;24.55;22.65;;;15.30;99.90;;;;;;4963534;28;20129;-94
2023/03/30 16:53:02;;;;;;;22.85;20.83;;;15.20;99.90;;;;;;4995966;28;20460;-94
2023/03/30 16:55:59;;;;;;;22.33;20.50;;;15.10;99.90;;;;;;4993669;28;20030;-93
2023/03/30 16:58:39;;;;;;;22.08;20.42;;;15.00;99.90;;;;;;4994784;28;20080;-93
2023/03/30 17:01:12;;;;;;;23.27;21.38;;;14.90;99.90;;;;;;4994851;28;20030;-94
2023/03/30 17:03:39;;;;;;;23.23;21.42;;;14.80;99.90;;;;;;4979199;28;20030;-95
2023/03/30 17:06:09;;;;;;;23.70;21.63;;;14.70;99.90;;;;;;4994473;28;20534;-92
2023/03/30 17:08:39;;;;;;;22.83;21.00;;;14.70;99.90;;;;;;4994934;28;20034;-93
2023/03/30 17:11:06;;;;;;;21.13;19.05;;;14.60;99.90;;;;;;4994781;28;20038;-95
2023/03/30 17:13:33;;;;;;;21.30;19.58;;;14.50;99.90;;;;;;4994634;28;20030;-93
2023/03/30 17:16:01;;;;;;;21.63;19.92;;;14.40;99.90;;;;;;4994131;28;20030;-94
2023/03/30 17:18:29;;;;;;;22.33;20.50;;;14.30;99.90;;;;;;4994689;28;20057;-94
2023/03/30 17:21:01;;;;;;;22.38;20.48;;;14.30;99.90;;;;;;4994335;28;20515;-94
2023/03/30 17:23:37;;;;;;;22.05;20.25;;;14.20;99.90;;;;;;4994501;28;20452;-93
2023/03/30 17:26:06;;;;;;;21.08;19.58;;;14.10;99.90;;;;;;4994063;28;20026;-91
2023/03/30 18:07:07;;;;;;;;;;;;;;;;;;;;;
2023/03/30 18:10:34;;;;;;;20.45;18.77;;;12.70;99.90;;;;;;5036902;23;20621;-94
2023/03/30 18:20:33;;;;;;;23.23;21.23;;;12.50;99.90;;;;;;5243757;23;20398;-93
2023/03/30 18:23:36;;;;;;;23.63;21.50;;;12.40;99.90;;;;;;5029905;23;20073;-91
2023/03/30 18:26:10;;;;;;;23.50;21.33;;;12.30;99.90;;;;;;5005025;28;20030;-92
2023/03/30 18:29:00;;;;;;;21.95;20.23;;;12.30;99.90;;;;;;4987221;28;20479;-93
2023/03/30 18:31:28;;;;;;;21.95;20.13;;;12.40;99.90;;;;;;4908698;29;20032;-91
2023/03/30 18:33:57;;;;;;;21.45;19.70;;;12.40;99.90;;;;;;4903916;29;20058;-90
2023/03/30 18:36:24;;;;;;;21.80;19.95;;;12.30;99.90;;;;;;4903606;29;20064;-91
2023/03/30 18:38:51;;;;;;;22.55;20.65;;;12.30;99.90;;;;;;4903450;29;20549;-90
2023/03/30 18:41:17;;;;;;;22.83;21.05;;;12.30;99.90;;;;;;4903283;29;20537;-90
2023/03/30 18:43:44;;;;;;;23.63;21.38;;;12.30;99.90;;;;;;4903365;29;20517;-91
2023/03/30 18:46:12;;;;;;;23.90;22.00;;;12.30;99.90;;;;;;4903432;29;20087;-91
2023/03/30 18:48:39;;;;;;;24.23;22.13;;;12.40;99.90;;;;;;4903304;29;20044;-91
2023/03/30 18:51:09;;;;;;;23.70;21.52;;;12.40;99.90;;;;;;4903208;29;20111;-90
2023/03/30 18:53:36;;;;;;;23.52;21.23;;;12.40;99.90;;;;;;4902978;29;20032;-90
2023/03/30 18:56:03;;;;;;;23.83;21.58;;;12.50;99.90;;;;;;4904098;29;20038;-91
2023/03/30 18:58:40;;;;;;;23.92;21.50;;;12.40;99.90;;;;;;4904148;29;20032;-91
2023/03/30 19:01:07;;;;;;;23.48;21.58;;;12.30;99.90;;;;;;4903693;29;20083;-91
2023/03/30 19:03:34;;;;;;;22.83;20.75;;;12.20;99.90;;;;;;4903628;29;20123;-90
2023/03/30 19:06:01;;;;;;;23.65;21.48;;;12.00;99.90;;;;;;4902762;29;20032;-92
2023/03/30 19:08:30;;;;;;;23.17;20.92;;;11.90;99.90;;;;;;4952430;28;20057;-89
2023/03/30 19:10:57;;;;;;;23.65;21.25;;;11.70;99.90;;;;;;4982795;28;20026;-90
2023/03/30 19:13:25;;;;;;;23.20;21.00;;;11.70;99.90;;;;;;4982961;28;20033;-90
2023/03/30 19:15:52;;;;;;;22.98;20.85;;;11.50;99.90;;;;;;4983266;28;20025;-92
2023/03/30 19:18:20;;;;;;;23.80;21.35;;;11.50;99.90;;;;;;4983002;28;20018;-92
2023/03/30 19:20:48;;;;;;;22.80;20.73;;;11.40;99.90;;;;;;4982289;28;20044;-92
2023/03/30 19:23:16;;;;;;;22.80;20.52;;;11.30;99.90;;;;;;4982579;28;20048;-92
2023/03/30 19:25:44;;;;;;;22.00;20.08;;;11.30;99.90;;;;;;4982830;28;20037;-90
2023/03/30 19:28:11;;;;;;;22.52;20.33;;;11.20;99.90;;;;;;4982896;28;20045;-90
2023/03/30 19:30:38;;;;;;;21.73;19.95;;;11.20;99.90;;;;;;4982846;28;20040;-91
2023/03/30 19:33:07;;;;;;;24.05;21.13;;;11.20;99.90;;;;;;4982866;28;20041;-92
2023/03/30 19:35:35;;;;;;;21.85;19.75;;;11.10;99.90;;;;;;4983325;28;20033;-92
2023/03/30 19:38:02;;;;;;;20.95;19.23;;;11.10;99.90;;;;;;4982901;28;20034;-90
2023/03/30 19:40:29;;;;;;;20.48;18.50;;;11.10;99.90;;;;;;4982741;28;20434;-89
2023/03/30 19:42:56;;;;;;;20.70;18.45;;;11.10;99.90;;;;;;4982510;28;20034;-91
2023/03/30 19:45:26;;;;;;;19.80;18.10;;;11.10;99.90;;;;;;4982562;28;20025;-91
2023/03/30 19:47:59;;;;;;;20.40;18.30;;;11.00;99.90;;;;;;4982580;28;20069;-92
2023/03/30 19:50:39;;;;;;;21.08;18.48;;;11.00;99.90;;;;;;4982822;28;20050;-93
2023/03/30 19:55:53;;;;;;;21.42;19.35;;;10.90;99.90;;;;;;5011931;23;20080;-92
2023/03/30 19:58:29;;;;;;;22.05;20.02;;;10.80;99.90;;;;;;4967910;28;20501;-92
2023/03/30 20:00:56;;;;;;;21.55;19.45;;;10.70;99.90;;;;;;4982405;28;20026;-92
2023/03/30 20:03:28;;;;;;;22.02;19.35;;;10.70;99.90;;;;;;4983460;28;20060;-91
2023/03/30 20:05:56;;;;;;;22.05;19.83;;;10.60;99.90;;;;;;4982246;28;20036;-91
2023/03/30 20:08:24;;;;;;;26.95;21.33;;;10.60;99.90;;;;;;4983059;28;20030;-92
2023/03/30 20:10:54;;;;;;;25.02;22.42;;;10.60;99.90;;;;;;4982124;28;20026;-93
2023/03/30 20:13:54;;;;;;;24.30;21.85;;;10.50;99.90;;;;;;4983193;28;20025;-92
2023/03/30 20:16:44;;;;;;;28.35;22.35;;;10.60;99.90;;;;;;4905429;29;20036;-92
2023/03/30 20:19:13;;;;;;;23.83;21.13;;;10.50;99.90;;;;;;4906019;29;20441;-93
2023/03/30 20:21:41;;;;;;;23.00;20.60;;;10.50;99.90;;;;;;4904757;29;20038;-91
2023/03/30 20:24:08;;;;;;;23.48;21.10;;;10.40;99.90;;;;;;4920219;29;20043;-91
2023/03/30 20:26:41;;;;;;;26.15;21.52;;;10.40;99.90;;;;;;4920336;29;20043;-92
2023/03/30 20:29:10;;;;;;;23.00;20.58;;;10.30;99.90;;;;;;4904490;29;20035;-92
2023/03/30 20:31:38;;;;;;;22.60;20.10;;;10.40;99.90;;;;;;4904668;29;20036;-92
2023/03/30 20:34:08;;;;;;;23.65;20.00;;;10.40;99.90;;;;;;4903843;29;20040;-93
2023/03/30 20:36:35;;;;;;;22.65;20.08;;;10.40;99.90;;;;;;4904465;29;20054;-92
2023/03/30 20:39:04;;;;;;;22.73;19.70;;;10.30;99.90;;;;;;4920203;29;20047;-92
2023/03/30 20:41:37;;;;;;;21.88;18.90;;;10.30;99.90;;;;;;4919649;29;20027;-93
2023/03/30 20:44:10;;;;;;;22.13;19.67;;;10.30;99.90;;;;;;4904483;29;20035;-92
2023/03/30 20:46:39;;;;;;;23.02;20.73;;;10.30;99.90;;;;;;4905206;29;20036;-91
2023/03/30 20:49:06;;;;;;;28.00;19.05;;;10.40;99.90;;;;;;4920115;29;20094;-93
2023/03/30 20:51:35;;;;;;;21.25;19.25;;;10.30;99.90;;;;;;4922540;28;20075;-92
2023/03/30 20:54:01;;;;;;;23.00;18.90;;;10.20;99.90;;;;;;4997259;28;20068;-91
2023/03/30 20:56:28;;;;;;;21.30;19.02;;;10.20;99.90;;;;;;4981012;28;20081;-91
2023/03/30 20:58:56;;;;;;;22.23;18.75;;;10.30;99.90;;;;;;4981372;28;20076;-91
2023/03/30 21:01:27;;;;;;;21.88;18.95;;;10.20;99.90;;;;;;4997100;28;20025;-91
2023/03/30 21:03:58;;;;;;;20.65;18.45;;;10.20;99.90;;;;;;4997468;28;20030;-90
2023/03/30 21:06:27;;;;;;;21.42;18.35;;;10.20;99.90;;;;;;5013845;28;20436;-92
2023/03/30 21:08:56;;;;;;;22.63;19.42;;;10.20;99.90;;;;;;4980903;28;20068;-91
2023/03/30 21:11:27;;;;;;;20.65;18.45;;;10.10;99.90;;;;;;4981175;28;20109;-90
2023/03/30 21:13:55;;;;;;;22.50;18.25;;;10.10;99.90;;;;;;4997141;28;20089;-90
2023/03/30 21:16:25;;;;;;;20.17;18.08;;;10.10;99.90;;;;;;4980843;28;20363;-91
2023/03/30 21:18:51;;;;;;;23.00;18.25;;;10.00;99.90;;;;;;4997018;28;20445;-90
2023/03/30 21:21:18;;;;;;;23.60;17.73;;;10.10;99.90;;;;;;4980621;28;20040;-90
2023/03/30 21:23:46;;;;;;;21.20;17.13;;;10.00;99.90;;;;;;4997304;28;20107;-91
2023/03/30 21:26:13;;;;;;;19.38;16.85;;;10.00;99.90;;;;;;4980905;28;20390;-92
2023/03/30 21:28:42;;;;;;;19.67;17.13;;;10.00;99.90;;;;;;5013536;28;20034;-91
2023/03/30 21:31:13;;;;;;;18.75;16.23;;;10.00;99.90;;;;;;4978450;28;20021;-91
2023/03/30 21:33:40;;;;;;;17.85;15.75;;;9.90;99.90;;;;;;5013385;28;20026;-91
2023/03/30 21:36:08;;;;;;;21.95;16.67;;;9.90;99.90;;;;;;4980837;28;20026;-91
2023/03/30 21:38:37;;;;;;;18.10;16.15;;;9.90;99.90;;;;;;4980878;28;20022;-91
2023/03/30 21:41:24;;;;;;;20.58;16.98;;;9.90;99.90;;;;;;4977170;28;20122;-90
2023/03/30 21:43:52;;;;;;;22.67;16.58;;;10.00;99.90;;;;;;4977964;28;20042;-90
2023/03/30 21:46:21;;;;;;;17.65;15.70;;;9.90;99.90;;;;;;4984432;28;20037;-91
2023/03/30 21:48:49;;;;;;;20.13;15.63;;;9.80;99.90;;;;;;4984675;28;20030;-90
2023/03/30 21:51:34;;;;;;;23.45;16.25;;;9.80;99.90;;;;;;4984301;28;20022;-90
2023/03/30 21:54:00;;;;;;;;;;;9.80;99.90;;;;;;5001287;28;20034;-92
2023/03/30 21:56:29;;;;;;;18.75;15.07;;;9.80;99.90;;;;;;5002206;28;19917;-91
2023/03/30 21:58:56;;;;;;;17.95;14.77;;;9.80;99.90;;;;;;5020330;28;20029;-91
2023/03/30 22:01:23;;;;;;;18.27;13.73;;;9.70;99.90;;;;;;5003706;28;20080;-90
2023/03/30 22:03:50;;;;;;;15.95;13.32;;;9.70;99.90;;;;;;5020378;28;20025;-90
2023/03/30 22:06:17;;;;;;;17.85;13.68;;;9.70;99.90;;;;;;5020192;28;20036;-91
2023/03/30 22:08:45;;;;;;;17.33;13.25;;;9.70;99.90;;;;;;5020002;28;20033;-92
2023/03/30 22:11:19;;;;;;;15.38;13.32;;;9.70;99.90;;;;;;5003614;28;20026;-93
2023/03/30 22:13:47;;;;;;;20.05;13.38;;;9.70;99.90;;;;;;5003498;28;20060;-91
2023/03/30 22:16:24;;;;;;;18.38;13.43;;;9.70;99.90;;;;;;5003958;28;20037;-93
2023/03/30 22:18:51;;;;;;;17.88;12.50;;;9.60;99.90;;;;;;5019756;28;20030;-90
2023/03/30 22:21:27;;;;;;;16.58;12.75;;;9.60;99.90;;;;;;5003540;28;20036;-90
2023/03/30 22:23:55;;;;;;;13.73;12.23;;;9.60;99.90;;;;;;5003621;28;20061;-92
2023/03/30 22:26:22;;;;;;;13.75;12.23;;;9.60;99.90;;;;;;5003640;28;20021;-89
2023/03/30 22:28:49;;;;;;;19.38;12.57;;;9.60;99.90;;;;;;5019760;28;20115;-93
2023/03/30 22:31:15;;;;;;;13.63;11.68;;;9.60;99.90;;;;;;5003349;28;20474;-91
2023/03/30 22:33:48;;;;;;;18.40;12.30;;;9.60;99.90;;;;;;5019681;28;20184;-93
2023/03/30 22:36:29;;;;;;;15.82;11.80;;;9.60;99.90;;;;;;5021874;28;20042;-92
2023/03/30 22:38:57;;;;;;;15.65;12.75;;;9.50;99.90;;;;;;5019542;28;20044;-93
2023/03/30 22:41:25;;;;;;;16.13;12.00;;;9.40;99.90;;;;;;5003329;28;20386;-91
2023/03/30 22:43:53;;;;;;;18.88;11.82;;;9.40;99.90;;;;;;5003117;28;20029;-93
2023/03/30 22:46:21;;;;;;;15.73;11.57;;;9.50;99.90;;;;;;5003029;28;20022;-92
2023/03/30 22:48:50;;;;;;;12.85;11.15;;;9.50;99.90;;;;;;5003198;28;20034;-93
2023/03/30 22:51:26;;;;;;;13.23;11.20;;;9.50;99.90;;;;;;5003564;28;20465;-92
2023/03/30 22:53:58;;;;;;;16.48;11.30;;;9.50;99.90;;;;;;5019168;28;20041;-93
2023/03/30 22:56:26;;;;;;;16.25;11.68;;;9.40;99.90;;;;;;5015053;28;20050;-91
2023/03/30 22:58:52;;;;;;;16.60;11.07;;;9.40;99.90;;;;;;4999993;28;20037;-93
2023/03/30 23:01:20;;;;;;;21.20;11.30;;;9.40;99.90;;;;;;5005664;28;20033;-92
2023/03/30 23:09:46;;;;;;;18.67;11.25;;;9.40;99.90;;;;;;5125668;23;20104;-91
2023/03/30 23:12:13;;;;;;;16.65;10.00;;;9.40;99.90;;;;;;4963927;28;20034;-91
2023/03/30 23:14:41;;;;;;;16.33;10.75;;;9.50;99.90;;;;;;4960563;28;20027;-94
2023/03/30 23:17:11;;;;;;;14.32;9.93;;;9.50;99.90;;;;;;4944537;28;20503;-94
2023/03/30 23:19:39;;;;;;;13.32;10.77;;;9.50;99.90;;;;;;4960651;28;20112;-91
2023/03/30 23:31:35;;;;;;;14.73;9.15;;;9.40;99.90;;;;;;5959909;23;20475;-92
2023/03/30 23:34:01;;;;;;;11.05;8.13;;;9.40;99.90;;;;;;4948114;28;20030;-92
2023/03/30 23:36:28;;;;;;;12.43;7.78;;;9.40;99.90;;;;;;4979463;28;20053;-92
2023/03/30 23:38:55;;;;;;;14.30;8.50;;;9.40;99.90;;;;;;4979718;28;20031;-93
2023/03/30 23:41:23;;;;;;;12.27;8.32;;;9.40;99.90;;;;;;4979713;28;20030;-91
2023/03/30 23:43:50;;;;;;;9.18;7.82;;;9.40;99.90;;;;;;4979070;28;20049;-92
2023/03/30 23:46:17;;;;;;;10.95;8.40;;;9.50;99.90;;;;;;4979474;28;20060;-92
2023/03/30 23:48:44;;;;;;;16.92;8.00;;;9.50;99.90;;;;;;4980072;28;20057;-93
2023/03/30 23:51:11;;;;;;;9.95;7.82;;;9.50;99.90;;;;;;4983418;28;20498;-92
2023/03/30 23:53:38;;;;;;;11.63;7.00;;;9.50;99.90;;;;;;4978944;28;20109;-92
2023/03/30 23:56:11;;;;;;;12.13;7.38;;;9.50;99.90;;;;;;4979361;28;20022;-92
2023/03/30 23:58:42;;;;;;;13.98;7.00;;;9.50;99.90;;;;;;4960841;28;20492;-93
